Time;durP1;ratioP1;P1;durP2;ratioP2;P2;SDS_P1;SDS_P2;PMS_P1;PMS_P2;Temp;Humidity;BMP_temperature;BMP_pressure;BME280_temperature;BME280_humidity;BME280_pressure;Samples;Min_cycle;Max_cycle;Signal;HPM_P1;HPM_P2
2022/09/26 00:01:47;;;;;;;;;;;;;;;13.28;100.00;97464.19;1703108;82;20884;-85
2022/09/26 00:04:20;;;;;;;;;;;;;;;13.32;100.00;97462.42;1702042;83;20838;-85
2022/09/26 00:06:47;;;;;;;;;;;;;;;13.34;100.00;97464.43;1705849;82;21950;-85
2022/09/26 00:09:14;;;;;;;;;;;;;;;13.35;100.00;97459.52;1703316;82;25925;-84
2022/09/26 00:11:40;;;;;;;;;;;;;;;13.35;100.00;97456.89;1704567;82;24408;-84
2022/09/26 00:14:20;;;;;;;;;;;;;;;13.33;100.00;97461.45;1682884;83;20498;-85
2022/09/26 00:16:46;;;;;;;;;;;;;;;13.31;100.00;97458.14;1709019;82;24923;-85
2022/09/26 00:19:12;;;;;;;;;;;;;;;13.29;100.00;97452.70;1711925;81;20904;-85
2022/09/26 00:21:38;;;;;;;;;;;;;;;13.26;100.00;97451.19;1714069;81;20932;-85
2022/09/26 00:24:05;;;;;;;;;;;;;;;13.18;100.00;97447.66;1713473;82;20526;-85
2022/09/26 00:26:32;;;;;;;;;;;;;;;13.17;100.00;97447.31;1717338;82;20289;-85
2022/09/26 00:29:00;;;;;;;;;;;;;;;13.15;100.00;97440.05;1715723;81;25045;-84
2022/09/26 00:31:33;;;;;;;;;;;;;;;13.07;100.00;97434.20;1713456;81;22026;-85
2022/09/26 00:34:00;;;;;;;;;;;;;;;13.03;100.00;97435.48;1717821;82;26853;-85
2022/09/26 00:36:32;;;;;;;;;;;;;;;13.05;100.00;97435.31;1715800;82;24541;-84
2022/09/26 00:39:01;;;;;;;;;;;;;;;13.08;100.00;97440.30;1690205;82;34182;-84
2022/09/26 00:41:27;;;;;;;;;;;;;;;13.09;100.00;97441.44;1709036;81;24935;-85
2022/09/26 00:43:58;;;;;;;;;;;;;;;13.11;100.00;97438.67;1688392;81;20226;-85
2022/09/26 00:46:38;;;;;;;;;;;;;;;13.10;100.00;97442.27;1709979;82;25962;-85
2022/09/26 00:49:06;;;;;;;;;;;;;;;13.10;100.00;97444.89;1717226;82;24443;-85
2022/09/26 00:51:33;;;;;;;;;;;;;;;13.10;100.00;97454.09;1704870;81;20302;-85
2022/09/26 00:54:00;;;;;;;;;;;;;;;13.10;100.00;97455.40;1713274;81;24833;-85
2022/09/26 00:56:30;;;;;;;;;;;;;;;13.07;100.00;97447.83;1711853;81;22765;-85
2022/09/26 00:59:06;;;;;;;;;;;;;;;13.06;100.00;97450.94;1719899;82;26064;-85
2022/09/26 01:01:44;;;;;;;;;;;;;;;13.10;100.00;97451.45;1710332;82;25309;-85
2022/09/26 01:04:16;;;;;;;;;;;;;;;13.12;100.00;97439.87;1709439;82;20446;-85
2022/09/26 01:06:51;;;;;;;;;;;;;;;13.15;100.00;97437.42;1712739;81;24982;-85
2022/09/26 01:09:18;;;;;;;;;;;;;;;13.17;100.00;97438.95;1712871;82;22158;-85
2022/09/26 01:11:46;;;;;;;;;;;;;;;13.20;100.00;97431.27;1719078;81;25946;-85
2022/09/26 01:14:13;;;;;;;;;;;;;;;13.22;100.00;97432.76;1718725;82;24387;-85
2022/09/26 01:16:41;;;;;;;;;;;;;;;13.23;100.00;97431.79;1713363;82;20446;-85
2022/09/26 01:19:19;;;;;;;;;;;;;;;13.25;100.00;97434.28;1714846;82;24731;-85
2022/09/26 01:22:05;;;;;;;;;;;;;;;13.20;100.00;97427.33;1714603;82;22821;-85
2022/09/26 01:24:38;;;;;;;;;;;;;;;13.22;100.00;97426.67;1714779;82;26026;-85
2022/09/26 01:27:06;;;;;;;;;;;;;;;13.19;100.00;97425.67;1711363;81;24460;-85
2022/09/26 01:29:34;;;;;;;;;;;;;;;13.19;100.00;97422.56;1707412;82;20368;-85
2022/09/26 01:35:11;;;;;;;;;;;;;;;13.32;100.00;97422.17;1695952;82;20274;-85
2022/09/26 01:37:58;;;;;;;;;;;;;;;13.34;100.00;97418.44;1710156;82;25984;-85
2022/09/26 01:40:28;;;;;;;;;;;;;;;13.36;100.00;97425.67;1706063;82;24549;-85
2022/09/26 01:42:59;;;;;;;;;;;;;;;13.35;100.00;97410.07;1657188;82;20230;-85
2022/09/26 01:45:34;;;;;;;;;;;;;;;13.34;100.00;97405.30;1708642;82;25000;-85
2022/09/26 01:48:18;;;;;;;;;;;;;;;13.35;100.00;97402.19;1703562;82;21974;-86
2022/09/26 01:50:46;;;;;;;;;;;;;;;13.32;100.00;97398.05;1706982;81;25982;-86
2022/09/26 01:53:16;;;;;;;;;;;;;;;13.30;100.00;97395.24;1708445;81;25227;-86
2022/09/26 01:55:52;;;;;;;;;;;;;;;13.26;100.00;97386.81;1704535;81;20318;-86
2022/09/26 01:58:34;;;;;;;;;;;;;;;13.22;100.00;97390.72;1713326;81;24794;-86
2022/09/26 02:01:03;;;;;;;;;;;;;;;13.14;100.00;97385.41;1713769;82;22058;-86
2022/09/26 02:03:32;;;;;;;;;;;;;;;13.06;100.00;97382.64;1707480;81;26007;-86
2022/09/26 02:06:01;;;;;;;;;;;;;;;13.04;100.00;97377.22;1717979;81;25262;-86
2022/09/26 02:08:31;;;;;;;;;;;;;;;13.07;100.00;97379.53;1692523;83;21809;-86
2022/09/26 02:11:01;;;;;;;;;;;;;;;13.05;100.00;97377.53;1703343;82;25151;-86
2022/09/26 02:13:50;;;;;;;;;;;;;;;13.02;100.00;97370.78;1708833;82;22173;-86
2022/09/26 02:16:21;;;;;;;;;;;;;;;12.99;100.00;97368.44;1707631;82;25452;-86
2022/09/26 02:18:49;;;;;;;;;;;;;;;12.95;100.00;97365.78;1704771;82;24688;-85
2022/09/26 02:21:18;;;;;;;;;;;;;;;12.89;100.00;97361.94;1705199;82;20300;-86
2022/09/26 02:23:45;;;;;;;;;;;;;;;12.88;100.00;97358.14;1686188;83;24749;-86
2022/09/26 02:26:11;;;;;;;;;;;;;;;12.92;100.00;97362.98;1692341;83;21997;-86
2022/09/26 02:28:43;;;;;;;;;;;;;;;12.98;100.00;97364.98;1685466;83;21025;-86
2022/09/26 02:31:11;;;;;;;;;;;;;;;13.09;100.00;97359.20;1716810;81;24748;-86
2022/09/26 02:33:37;;;;;;;;;;;;;;;13.18;100.00;97354.39;1715232;81;20211;-86
2022/09/26 02:36:06;;;;;;;;;;;;;;;13.30;100.00;97357.14;1704945;82;20322;-86
2022/09/26 02:38:33;;;;;;;;;;;;;;;13.34;100.00;97346.17;1707584;82;22109;-85
2022/09/26 02:41:07;;;;;;;;;;;;;;;13.31;100.00;97341.72;1708994;82;26670;-84
2022/09/26 02:43:38;;;;;;;;;;;;;;;13.30;100.00;97342.20;1703632;83;24509;-84
2022/09/26 02:46:25;;;;;;;;;;;;;;;13.34;100.00;97336.16;1711254;82;20154;-84
2022/09/26 02:49:05;;;;;;;;;;;;;;;13.37;100.00;97334.52;1688548;83;24940;-84
2022/09/26 02:51:50;;;;;;;;;;;;;;;13.31;100.00;97333.32;1711027;82;21922;-84
2022/09/26 02:54:26;;;;;;;;;;;;;;;13.31;100.00;97332.01;1704697;82;26009;-84
2022/09/26 02:57:02;;;;;;;;;;;;;;;13.38;100.00;97327.81;1692538;82;24428;-84
2022/09/26 02:59:27;;;;;;;;;;;;;;;13.45;100.00;97327.20;1702192;82;20218;-85
2022/09/26 03:02:09;;;;;;;;;;;;;;;13.43;100.00;97322.58;1711955;81;24767;-85
2022/09/26 03:04:43;;;;;;;;;;;;;;;13.42;100.00;97324.38;1699648;82;23137;-85
2022/09/26 03:07:11;;;;;;;;;;;;;;;13.46;100.00;97330.17;1705142;81;26276;-85
2022/09/26 03:09:39;;;;;;;;;;;;;;;13.42;100.00;97320.44;1704746;82;24564;-85
2022/09/26 03:12:08;;;;;;;;;;;;;;;13.37;100.00;97324.01;1698547;82;20527;-85
2022/09/26 03:14:44;;;;;;;;;;;;;;;13.42;100.00;97318.33;1706875;82;25834;-85
2022/09/26 03:17:12;;;;;;;;;;;;;;;13.34;100.00;97322.52;1708518;82;21990;-85
2022/09/26 03:19:43;;;;;;;;;;;;;;;13.30;100.00;97320.36;1705513;82;26731;-85
2022/09/26 03:22:15;;;;;;;;;;;;;;;13.33;100.00;97322.67;1695514;82;25489;-85
2022/09/26 03:24:41;;;;;;;;;;;;;;;13.39;100.00;97318.13;1677937;83;20253;-85
2022/09/26 03:27:08;;;;;;;;;;;;;;;13.37;100.00;97316.13;1719889;82;24836;-85
2022/09/26 03:29:37;;;;;;;;;;;;;;;13.35;100.00;97308.41;1728512;82;22165;-85
2022/09/26 03:32:05;;;;;;;;;;;;;;;13.36;100.00;97309.24;1719683;82;27025;-85
2022/09/26 03:34:31;;;;;;;;;;;;;;;13.34;100.00;97309.87;1716062;81;24621;-85
2022/09/26 03:37:00;;;;;;;;;;;;;;;13.32;100.00;97307.88;1704247;82;20554;-85
2022/09/26 03:39:29;;;;;;;;;;;;;;;13.35;100.00;97306.27;1692524;82;25308;-86
2022/09/26 03:42:05;;;;;;;;;;;;;;;13.43;100.00;97306.32;1703759;82;22128;-86
2022/09/26 03:44:31;;;;;;;;;;;;;;;13.48;100.00;97312.43;1680238;83;26034;-85
2022/09/26 03:47:06;;;;;;;;;;;;;;;13.48;100.00;97308.48;1727667;82;24453;-85
2022/09/26 03:49:32;;;;;;;;;;;;;;;13.45;100.00;97310.13;1715166;81;20244;-86
2022/09/26 03:52:03;;;;;;;;;;;;;;;13.45;100.00;97311.44;1716317;82;20750;-85
2022/09/26 03:54:30;;;;;;;;;;;;;;;13.41;100.00;97308.30;1689865;82;22072;-86
2022/09/26 03:56:56;;;;;;;;;;;;;;;13.34;100.00;97308.56;1671500;84;26015;-85
2022/09/26 03:59:22;;;;;;;;;;;;;;;13.32;100.00;97310.50;1672208;84;24450;-86
2022/09/26 04:01:50;;;;;;;;;;;;;;;13.29;100.00;97306.88;1672630;84;21035;-85
2022/09/26 04:04:16;;;;;;;;;;;;;;;13.22;100.00;97300.08;1673125;84;24902;-85
2022/09/26 04:06:44;;;;;;;;;;;;;;;13.18;100.00;97303.16;1673990;84;20271;-85
2022/09/26 04:09:11;;;;;;;;;;;;;;;13.10;100.00;97301.25;1670487;84;26074;-85
2022/09/26 04:11:38;;;;;;;;;;;;;;;13.05;100.00;97297.42;1670330;84;25601;-86
2022/09/26 04:14:04;;;;;;;;;;;;;;;13.00;100.00;97293.45;1669738;84;20342;-86
2022/09/26 04:16:30;;;;;;;;;;;;;;;12.98;100.00;97294.59;1666833;84;24865;-86
2022/09/26 04:18:56;;;;;;;;;;;;;;;13.00;100.00;97293.45;1671678;84;20390;-85
2022/09/26 04:21:25;;;;;;;;;;;;;;;13.03;100.00;97284.46;1670084;84;20319;-85
2022/09/26 04:23:52;;;;;;;;;;;;;;;13.03;100.00;97281.83;1669535;84;24481;-85
2022/09/26 04:26:18;;;;;;;;;;;;;;;13.00;100.00;97286.88;1669445;84;20261;-85
2022/09/26 04:28:45;;;;;;;;;;;;;;;13.02;100.00;97285.91;1669863;84;24914;-85
2022/09/26 04:31:17;;;;;;;;;;;;;;;13.07;100.00;97282.34;1670461;84;22884;-84
2022/09/26 04:33:44;;;;;;;;;;;;;;;13.04;100.00;97276.09;1670121;83;25908;-85
2022/09/26 04:36:11;;;;;;;;;;;;;;;13.03;100.00;97277.06;1671683;84;24400;-85
2022/09/26 04:38:38;;;;;;;;;;;;;;;13.09;100.00;97269.38;1670613;84;20591;-85
2022/09/26 04:41:06;;;;;;;;;;;;;;;13.18;100.00;97273.78;1672142;84;26082;-85
2022/09/26 04:43:36;;;;;;;;;;;;;;;13.26;100.00;97274.31;1680112;84;22076;-85
2022/09/26 04:46:01;;;;;;;;;;;;;;;13.27;100.00;97270.23;1677444;84;26158;-85
2022/09/26 04:48:27;;;;;;;;;;;;;;;13.36;100.00;97269.83;1675477;84;24523;-85
2022/09/26 04:50:54;;;;;;;;;;;;;;;13.46;100.00;97267.92;1675904;84;20577;-85
2022/09/26 04:53:20;;;;;;;;;;;;;;;13.51;100.00;97268.77;1678192;82;24912;-85
2022/09/26 04:55:53;;;;;;;;;;;;;;;13.54;100.00;97267.14;1707629;82;20233;-85
2022/09/26 04:58:19;;;;;;;;;;;;;;;13.53;100.00;97268.94;1709713;82;26067;-85
2022/09/26 05:00:49;;;;;;;;;;;;;;;13.50;100.00;97275.83;1716597;82;20334;-84
2022/09/26 05:03:19;;;;;;;;;;;;;;;13.40;100.00;97266.73;1709998;82;20303;-85
2022/09/26 05:05:49;;;;;;;;;;;;;;;13.37;100.00;97267.51;1705736;82;24920;-85
2022/09/26 05:08:15;;;;;;;;;;;;;;;13.38;100.00;97268.67;1708628;82;22118;-85
2022/09/26 05:10:43;;;;;;;;;;;;;;;13.44;100.00;97261.98;1710303;82;27060;-85
2022/09/26 05:13:11;;;;;;;;;;;;;;;13.47;100.00;97267.44;1711636;82;24564;-85
2022/09/26 05:15:38;;;;;;;;;;;;;;;13.45;100.00;97263.64;1715701;82;20530;-85
2022/09/26 05:18:06;;;;;;;;;;;;;;;13.38;100.00;97262.59;1712710;82;25428;-85
2022/09/26 05:20:34;;;;;;;;;;;;;;;13.36;100.00;97257.48;1710301;82;22044;-85
2022/09/26 05:23:07;;;;;;;;;;;;;;;13.40;100.00;97257.54;1713175;82;26051;-85
2022/09/26 05:28:24;;;;;;;;;;;;;;;13.49;100.00;97257.58;1713488;82;20515;-85
2022/09/26 05:30:56;;;;;;;;;;;;;;;13.54;100.00;97246.11;1710419;82;25478;-85
2022/09/26 05:33:20;;;;;;;;;;;;;;;13.57;100.00;97250.59;1708119;82;22028;-86
2022/09/26 05:35:52;;;;;;;;;;;;;;;13.62;100.00;97247.49;1713807;82;25962;-86
2022/09/26 05:38:18;;;;;;;;;;;;;;;13.58;100.00;97233.81;1710715;82;25494;-86
2022/09/26 05:40:56;;;;;;;;;;;;;;;13.68;100.00;97244.25;1715874;82;20296;-86
2022/09/26 05:43:23;;;;;;;;;;;;;;;13.66;100.00;97247.02;1707232;82;24959;-86
2022/09/26 05:45:49;;;;;;;;;;;;;;;13.61;100.00;97244.03;1711874;82;22116;-86
2022/09/26 05:48:16;;;;;;;;;;;;;;;13.55;100.00;97246.45;1716943;81;25980;-86
2022/09/26 05:50:49;;;;;;;;;;;;;;;13.50;100.00;97248.72;1710551;82;25340;-86
2022/09/26 05:53:15;;;;;;;;;;;;;;;13.48;100.00;97252.81;1710810;82;20401;-86
2022/09/26 05:55:44;;;;;;;;;;;;;;;13.50;100.00;97253.48;1706845;82;20280;-86
2022/09/26 05:58:10;;;;;;;;;;;;;;;13.54;100.00;97248.73;1715205;82;22285;-86
2022/09/26 06:00:37;;;;;;;;;;;;;;;13.54;100.00;97249.56;1712824;82;20966;-87
2022/09/26 06:03:03;;;;;;;;;;;;;;;13.56;100.00;97250.73;1711941;81;24447;-85
2022/09/26 06:05:31;;;;;;;;;;;;;;;13.59;100.00;97249.09;1713608;81;20477;-86
2022/09/26 06:07:58;;;;;;;;;;;;;;;13.62;100.00;97252.27;1692635;82;24787;-86
2022/09/26 06:10:24;;;;;;;;;;;;;;;13.66;100.00;97254.08;1724137;81;22205;-86
2022/09/26 06:12:50;;;;;;;;;;;;;;;13.70;100.00;97249.66;1730040;82;20900;-86
2022/09/26 06:15:23;;;;;;;;;;;;;;;13.71;100.00;97248.69;1723628;81;20858;-85
2022/09/26 06:17:51;;;;;;;;;;;;;;;13.70;100.00;97248.34;1725639;81;20319;-86
2022/09/26 06:20:19;;;;;;;;;;;;;;;13.71;100.00;97243.44;1727852;82;24845;-85
2022/09/26 06:22:45;;;;;;;;;;;;;;;13.76;100.00;97246.91;1721122;82;22115;-85
2022/09/26 06:25:17;;;;;;;;;;;;;;;13.76;100.00;97250.36;1728657;81;20485;-85
2022/09/26 06:27:47;;;;;;;;;;;;;;;13.79;100.00;97250.55;1728063;81;24703;-86
2022/09/26 06:30:20;;;;;;;;;;;;;;;13.81;100.00;97250.72;1728369;82;20546;-86
2022/09/26 06:32:46;;;;;;;;;;;;;;;13.81;100.00;97254.66;1725790;82;24831;-86
2022/09/26 06:35:12;;;;;;;;;;;;;;;13.80;100.00;97254.32;1708828;82;20371;-85
2022/09/26 06:37:38;;;;;;;;;;;;;;;13.78;100.00;97252.36;1733823;81;20889;-86
2022/09/26 06:40:07;;;;;;;;;;;;;;;13.81;100.00;97257.30;1728567;82;24346;-85
2022/09/26 06:42:36;;;;;;;;;;;;;;;13.86;100.00;97256.81;1739025;81;20243;-84
2022/09/26 06:45:01;;;;;;;;;;;;;;;13.87;100.00;97251.07;1726981;81;24733;-85
2022/09/26 06:47:34;;;;;;;;;;;;;;;13.88;100.00;97253.55;1721993;82;22026;-85
2022/09/26 06:50:00;;;;;;;;;;;;;;;13.91;100.00;97249.80;1724912;82;26020;-85
2022/09/26 06:52:28;;;;;;;;;;;;;;;13.92;100.00;97251.42;1734474;82;24483;-86
2022/09/26 06:54:57;;;;;;;;;;;;;;;13.94;100.00;97252.10;1729152;82;20197;-85
2022/09/26 06:57:22;;;;;;;;;;;;;;;13.96;100.00;97247.52;1728477;82;24773;-86
2022/09/26 06:59:48;;;;;;;;;;;;;;;13.96;100.00;97252.78;1730836;81;20254;-85
2022/09/26 07:02:21;;;;;;;;;;;;;;;13.91;100.00;97250.59;1730292;81;21212;-85
2022/09/26 07:04:47;;;;;;;;;;;;;;;13.87;100.00;97257.64;1724161;82;24491;-85
2022/09/26 07:07:13;;;;;;;;;;;;;;;13.79;100.00;97252.70;1729963;82;20814;-86
2022/09/26 07:09:41;;;;;;;;;;;;;;;13.78;100.00;97253.67;1729559;82;24819;-85
2022/09/26 07:12:08;;;;;;;;;;;;;;;13.78;100.00;97254.16;1725234;82;22003;-85
2022/09/26 07:14:36;;;;;;;;;;;;;;;13.83;100.00;97253.20;1729027;82;26026;-85
2022/09/26 07:17:12;;;;;;;;;;;;;;;13.87;100.00;97252.39;1707674;82;20577;-85
2022/09/26 07:19:38;;;;;;;;;;;;;;;13.94;100.00;97250.79;1730548;82;20150;-85
2022/09/26 07:22:05;;;;;;;;;;;;;;;13.96;100.00;97257.55;1729621;82;20849;-86
2022/09/26 07:24:34;;;;;;;;;;;;;;;13.96;100.00;97255.41;1729869;82;24396;-85
2022/09/26 07:27:01;;;;;;;;;;;;;;;13.90;100.00;97254.23;1729070;82;25952;-85
2022/09/26 07:29:27;;;;;;;;;;;;;;;13.88;100.00;97257.98;1733012;82;24642;-85
2022/09/26 07:31:54;;;;;;;;;;;;;;;13.91;100.00;97255.86;1729659;82;20338;-85
2022/09/26 07:34:23;;;;;;;;;;;;;;;13.93;100.00;97259.66;1730186;82;24904;-85
2022/09/26 07:36:48;;;;;;;;;;;;;;;13.94;100.00;97262.63;1726381;82;22737;-86
2022/09/26 07:39:17;;;;;;;;;;;;;;;13.88;100.00;97260.13;1726624;81;26123;-86
2022/09/26 07:41:46;;;;;;;;;;;;;;;13.88;100.00;97260.61;1724065;82;24449;-86
2022/09/26 07:44:14;;;;;;;;;;;;;;;13.89;100.00;97259.64;1726591;82;20290;-86
2022/09/26 07:52:10;;;;;;;;;;;;;;;14.15;100.00;97261.73;1727096;82;26682;-86
2022/09/26 07:54:35;;;;;;;;;;;;;;;14.24;100.00;97266.04;1725075;82;24679;-86
2022/09/26 07:57:03;;;;;;;;;;;;;;;14.24;100.00;97264.23;1733346;82;20294;-86
2022/09/26 07:59:34;;;;;;;;;;;;;;;14.27;100.00;97260.48;1730313;82;20194;-86
2022/09/26 08:01:59;;;;;;;;;;;;;;;14.32;100.00;97260.00;1732667;81;21872;-86
2022/09/26 08:04:25;;;;;;;;;;;;;;;14.37;100.00;97262.52;1732032;82;20961;-86
2022/09/26 08:06:52;;;;;;;;;;;;;;;14.39;100.00;97258.42;1727965;81;24021;-86
2022/09/26 08:09:18;;;;;;;;;;;;;;;14.44;100.00;97259.59;1734783;82;20224;-86
2022/09/26 08:11:44;;;;;;;;;;;;;;;14.46;100.00;97260.72;1733044;82;20317;-86
2022/09/26 08:14:10;;;;;;;;;;;;;;;14.49;100.00;97257.30;1731901;82;22070;-86
2022/09/26 08:16:40;;;;;;;;;;;;;;;14.56;100.00;97260.92;1730641;82;20976;-86
2022/09/26 08:19:06;;;;;;;;;;;;;;;14.61;100.00;97259.97;1725690;82;24439;-86
2022/09/26 08:21:32;;;;;;;;;;;;;;;14.70;100.00;97262.61;1731603;82;20326;-86
2022/09/26 08:23:58;;;;;;;;;;;;;;;14.68;100.00;97259.30;1726875;82;20307;-86
2022/09/26 08:26:30;;;;;;;;;;;;;;;14.67;100.00;97257.19;1725299;81;22105;-86
2022/09/26 08:29:02;;;;;;;;;;;;;;;14.73;100.00;97258.35;1727135;81;26200;-86
2022/09/26 08:31:28;;;;;;;;;;;;;;;14.76;100.00;97260.65;1731088;82;24590;-86
2022/09/26 08:33:56;;;;;;;;;;;;;;;14.83;100.00;97264.29;1732508;81;20187;-86
2022/09/26 08:36:23;;;;;;;;;;;;;;;14.85;100.00;97259.17;1724146;82;25801;-86
2022/09/26 08:38:49;;;;;;;;;;;;;;;14.89;100.00;97263.64;1728085;81;20240;-86
2022/09/26 08:41:31;;;;;;;;;;;;;;;14.91;100.00;97259.02;1733551;82;25695;-86
2022/09/26 08:44:15;;;;;;;;;;;;;;;14.97;100.00;97259.20;1728730;82;24424;-86
2022/09/26 08:47:00;;;;;;;;;;;;;;;14.98;100.00;97258.70;1730838;82;20570;-86
2022/09/26 08:49:31;;;;;;;;;;;;;;;14.98;100.00;97261.34;1647131;83;25411;-86
2022/09/26 08:52:00;;;;;;;;;;;;;;;14.91;100.00;97260.34;1708147;82;22266;-86
2022/09/26 08:54:28;;;;;;;;;;;;;;;14.88;100.00;97260.19;1718390;82;26078;-87
2022/09/26 08:56:56;;;;;;;;;;;;;;;14.86;100.00;97258.69;1700845;82;25438;-87
2022/09/26 08:59:27;;;;;;;;;;;;;;;14.87;100.00;97262.48;1715440;82;20557;-85
2022/09/26 09:02:03;;;;;;;;;;;;;;;14.90;100.00;97261.31;1715796;82;25597;-86
2022/09/26 09:04:38;;;;;;;;;;;;;;;14.95;100.00;97263.80;1717099;82;22061;-86
2022/09/26 09:07:19;;;;;;;;;;;;;;;14.97;100.00;97256.56;1697490;83;21282;-86
2022/09/26 09:09:45;;;;;;;;;;;;;;;15.04;100.00;97259.38;1695152;82;24649;-86
2022/09/26 09:12:26;;;;;;;;;;;;;;;15.11;100.00;97256.92;1704697;82;20322;-86
2022/09/26 09:15:03;;;;;;;;;;;;;;;15.15;100.00;97260.38;1697221;83;24209;-86
2022/09/26 09:17:40;;;;;;;;;;;;;;;15.20;100.00;97259.38;1704909;82;22000;-86
2022/09/26 09:20:20;;;;;;;;;;;;;;;15.21;100.00;97259.72;1701951;82;26042;-86
2022/09/26 09:22:53;;;;;;;;;;;;;;;15.22;100.00;97256.07;1714268;81;24385;-86
2022/09/26 09:25:23;;;;;;;;;;;;;;;15.26;100.00;97252.14;1707897;82;20349;-86
2022/09/26 09:27:57;;;;;;;;;;;;;;;15.29;100.00;97251.80;1698987;83;24737;-86
2022/09/26 09:30:24;;;;;;;;;;;;;;;15.23;100.00;97251.13;1706556;82;22092;-86
2022/09/26 09:33:01;;;;;;;;;;;;;;;15.23;100.00;97249.81;1705707;82;26726;-86
2022/09/26 09:35:40;;;;;;;;;;;;;;;15.28;100.00;97248.83;1704369;83;24311;-86
2022/09/26 09:38:08;;;;;;;;;;;;;;;15.31;100.00;97251.64;1699325;83;20269;-86
2022/09/26 09:40:36;;;;;;;;;;;;;;;15.33;100.00;97250.95;1690681;82;25655;-86
2022/09/26 09:43:12;;;;;;;;;;;;;;;15.35;100.00;97255.58;1725617;81;22159;-86
2022/09/26 09:45:46;;;;;;;;;;;;;;;15.33;100.00;97251.78;1703001;82;26153;-86
2022/09/26 09:48:12;;;;;;;;;;;;;;;15.38;100.00;97244.72;1704247;82;24596;-85
2022/09/26 09:50:49;;;;;;;;;;;;;;;15.38;100.00;97248.67;1705755;83;20218;-86
2022/09/26 09:53:29;;;;;;;;;;;;;;;15.40;100.00;97247.51;1699630;83;25029;-85
2022/09/26 09:56:03;;;;;;;;;;;;;;;15.33;100.00;97254.91;1666084;83;22231;-86
2022/09/26 09:58:47;;;;;;;;;;;;;;;15.31;100.00;97252.47;1678154;83;26084;-85
2022/09/26 10:01:25;;;;;;;;;;;;;;;15.35;100.00;97251.14;1691526;83;24572;-86
2022/09/26 10:03:54;;;;;;;;;;;;;;;15.37;100.00;97247.85;1694062;83;20194;-86
2022/09/26 10:06:21;;;;;;;;;;;;;;;15.38;100.00;97245.52;1699932;83;25556;-86
2022/09/26 10:08:49;;;;;;;;;;;;;;;15.45;100.00;97246.52;1679112;83;21882;-85
2022/09/26 10:11:27;;;;;;;;;;;;;;;15.61;100.00;97240.42;1694050;83;26757;-85
2022/09/26 10:13:55;;;;;;;;;;;;;;;15.80;100.00;97237.42;1706771;82;24573;-86
2022/09/26 10:16:23;;;;;;;;;;;;;;;15.83;100.00;97237.56;1709922;82;20210;-85
2022/09/26 10:18:55;;;;;;;;;;;;;;;15.82;100.00;97242.02;1664532;84;24963;-86
2022/09/26 10:21:31;;;;;;;;;;;;;;;15.90;100.00;97245.97;1690848;83;22020;-86
2022/09/26 10:23:57;;;;;;;;;;;;;;;16.08;100.00;97237.02;1712095;82;25998;-85
2022/09/26 10:26:34;;;;;;;;;;;;;;;16.25;100.00;97239.91;1712042;82;24514;-85
2022/09/26 10:29:05;;;;;;;;;;;;;;;16.28;100.00;97235.59;1711625;82;20265;-85
2022/09/26 10:31:37;;;;;;;;;;;;;;;16.35;100.00;97233.10;1713128;82;24801;-85
2022/09/26 10:34:05;;;;;;;;;;;;;;;16.44;100.00;97231.56;1707389;82;22088;-86
2022/09/26 10:36:33;;;;;;;;;;;;;;;16.53;100.00;97229.72;1658991;85;26227;-85
2022/09/26 10:41:45;;;;;;;;;;;;;;;16.41;100.00;97225.31;1665164;84;20217;-85
2022/09/26 10:44:22;;;;;;;;;;;;;;;16.42;100.00;97227.46;1656845;85;25604;-85
2022/09/26 10:46:50;;;;;;;;;;;;;;;16.46;100.00;97226.11;1691810;83;22027;-85
2022/09/26 10:49:19;;;;;;;;;;;;;;;16.49;100.00;97227.90;1696216;83;26090;-85
2022/09/26 10:51:49;;;;;;;;;;;;;;;16.58;100.00;97216.28;1695583;83;24397;-85
2022/09/26 10:54:17;;;;;;;;;;;;;;;16.52;100.00;97214.86;1661100;84;20442;-85
2022/09/26 10:56:48;;;;;;;;;;;;;;;16.57;100.00;97213.84;1709243;82;25568;-85
2022/09/26 10:59:16;;;;;;;;;;;;;;;16.72;100.00;97208.16;1703764;82;21440;-85
2022/09/26 11:01:44;;;;;;;;;;;;;;;16.73;100.00;97211.13;1706469;82;25989;-85
2022/09/26 11:07:10;;;;;;;4.15;3.20;;;;;;;16.80;100.00;97204.12;1711876;82;28089;-85
2022/09/26 11:09:37;;;;;;;3.80;3.05;;;;;;;16.71;100.00;97206.50;1713996;82;28093;-85
2022/09/26 11:12:24;;;;;;;3.45;2.87;;;;;;;16.59;100.00;97203.44;1710712;82;28127;-85
2022/09/26 11:15:04;;;;;;;4.35;2.90;;;;;;;16.62;100.00;97202.28;1708724;82;28057;-85
2022/09/26 11:17:47;;;;;;;;;;;;;;;16.68;100.00;97195.80;1719046;82;28475;-85
2022/09/26 11:20:28;;;;;;;;;;;;;;;16.77;100.00;97195.73;1722870;82;20256;-85
2022/09/26 11:22:59;;;;;;;;;;;;;;;16.83;100.00;97199.00;1720386;82;20508;-85
2022/09/26 11:25:30;;;;;;;;;;;;;;;16.85;100.00;97190.41;1690742;81;22053;-85
2022/09/26 11:28:01;;;;;;;;;;;;;;;16.88;100.00;97194.00;1714596;82;26095;-85
2022/09/26 11:30:28;;;;;;;;;;;;;;;16.95;100.00;97196.27;1712517;82;24148;-85
2022/09/26 11:32:57;;;;;;;;;;;;;;;17.07;100.00;97195.65;1714146;82;20255;-85
2022/09/26 11:35:41;;;;;;;;;;;;;;;17.14;100.00;97186.02;1696337;82;22181;-85
2022/09/26 11:38:05;;;;;;;;;;;;;;;17.07;100.00;97180.31;1718949;82;22178;-85
2022/09/26 11:40:33;;;;;;;;;;;;;;;16.86;100.00;97185.41;1718185;82;26112;-85
2022/09/26 11:43:07;;;;;;;;;;;;;;;16.86;100.00;97179.63;1719440;82;24621;-85
2022/09/26 11:45:35;;;;;;;;;;;;;;;16.89;100.00;97177.98;1695831;82;20512;-85
2022/09/26 11:48:05;;;;;;;;;;;;;;;16.97;100.00;97174.42;1712222;82;24720;-84
2022/09/26 11:50:39;;;;;;;;;;;;;;;16.96;100.00;97168.34;1727266;81;22203;-84
2022/09/26 11:53:25;;;;;;;;;;;;;;;17.00;100.00;97165.66;1727055;82;22892;-84
2022/09/26 11:56:14;;;;;;;;;;;;;;;16.96;100.00;97164.38;1684034;83;25246;-86
2022/09/26 11:58:44;;;;;;;;;;;;;;;16.98;100.00;97155.75;1733416;81;20764;-85
2022/09/26 12:01:15;;;;;;;;;;;;;;;16.95;100.00;97153.48;1723256;81;25658;-85
2022/09/26 12:03:45;;;;;;;;;;;;;;;17.01;100.00;97159.88;1724842;82;22238;-85
2022/09/26 12:06:16;;;;;;;;;;;;;;;16.86;100.00;97157.17;1724271;82;25971;-85
2022/09/26 12:08:52;;;;;;;;;;;;;;;16.90;100.00;97153.70;1726944;82;24595;-85
2022/09/26 12:11:22;;;;;;;;;;;;;;;16.89;100.00;97154.19;1707213;82;20452;-85
2022/09/26 12:14:08;;;;;;;;;;;;;;;16.99;100.00;97160.55;1705149;82;24952;-84
2022/09/26 12:16:41;;;;;;;;;;;;;;;17.11;100.00;97153.34;1733908;81;20187;-86
2022/09/26 12:19:15;;;;;;;;;;;;;;;17.23;100.00;97156.38;1739567;81;26702;-85
2022/09/26 12:24:59;;;;;;;;;;;;;;;17.46;100.00;97148.35;1718798;82;20242;-85
2022/09/26 12:27:36;;;;;;;;;;;;;;;17.52;100.00;97144.48;1726783;82;24773;-85
2022/09/26 12:30:09;;;;;;;;;;;;;;;17.52;100.00;97145.81;1705491;82;21807;-85
2022/09/26 12:32:46;;;;;;;;;;;;;;;17.54;100.00;97149.11;1690332;83;25982;-85
2022/09/26 12:35:19;;;;;;;;;;;;;;;17.55;100.00;97140.67;1648427;84;20274;-86
2022/09/26 12:37:48;;;;;;;;;;;;;;;17.60;100.00;97139.66;1721109;81;20188;-85
2022/09/26 12:40:19;;;;;;;;;;;;;;;17.66;100.00;97140.75;1724421;82;24937;-85
2022/09/26 12:42:47;;;;;;;;;;;;;;;17.69;100.00;97145.66;1717697;82;22172;-85
2022/09/26 12:45:16;;;;;;;;;;;;;;;17.63;100.00;97137.95;1718702;82;26729;-86
2022/09/26 12:47:44;;;;;;;;;;;;;;;17.58;100.00;97137.15;1725230;82;23899;-86
2022/09/26 12:50:24;;;;;;;;;;;;;;;17.58;100.00;97134.50;1720449;82;20178;-86
2022/09/26 12:52:55;;;;;;;;;;;;;;;17.58;100.00;97139.80;1722701;82;24764;-85
2022/09/26 12:55:23;;;;;;;;;;;;;;;17.54;100.00;97141.67;1720601;82;22156;-85
2022/09/26 12:57:53;;;;;;;;;;;;;;;17.49;100.00;97139.57;1718444;81;26092;-86
2022/09/26 13:00:24;;;;;;;;;;;;;;;17.46;100.00;97139.92;1716513;81;24526;-85
2022/09/26 13:02:55;;;;;;;;;;;;;;;17.45;100.00;97129.55;1718506;82;20466;-85
2022/09/26 13:05:23;;;;;;;;;;;;;;;17.40;100.00;97130.06;1715294;81;24734;-84
2022/09/26 13:08:01;;;;;;;;;;;;;;;17.36;100.00;97137.22;1726214;81;22153;-85
2022/09/26 13:10:47;;;;;;;;;;;;;;;17.31;100.00;97129.02;1712863;82;26611;-84
2022/09/26 13:13:32;;;;;;;;;;;;;;;17.23;100.00;97125.97;1712660;81;24641;-84